Terminal Aerodrome Forecast
Issued by NWS Twin Cities, MN

Home | Current Version | Previous Version | Text Only | Print | Product List | Glossary Off
Versions: 1 2 3 4 5 6 7 8 9 10 11 12 13 14 15 16 17 18 19

000
FTUS43 KMPX 290200 AAA
TAFSTC
TAF AMD
KSTC 290256Z 2903/2924 30015G22KT P6SM SCT015 BKN025 OVC040
     FM290600 31012G20KT P6SM BKN015 OVC040
     FM290900 31012KT P6SM BKN015 OVC040
     FM291500 30006KT P6SM BKN025 BKN040
     FM291800 30006KT P6SM SCT035 BKN050=

USA.gov is the U.S. government's official web portal to all federal, state and local government web resources and services.